sensor_id;sensor_type;location;lat;lon;timestamp;P1;durP1;ratioP1;P2;durP2;ratioP2
13696;SDS011;6920;50.080;8.226;2024-01-27T00:00:58;0.08;;;0.08;;
13696;SDS011;6920;50.080;8.226;2024-01-27T00:03:25;0.00;;;0.00;;
13696;SDS011;6920;50.080;8.226;2024-01-27T00:05:53;1.88;;;1.52;;
13696;SDS011;6920;50.080;8.226;2024-01-27T00:08:20;2.70;;;1.42;;
13696;SDS011;6920;50.080;8.226;2024-01-27T00:10:47;2.17;;;2.08;;
13696;SDS011;6920;50.080;8.226;2024-01-27T00:13:14;16.10;;;1.63;;
13696;SDS011;6920;50.080;8.226;2024-01-27T00:15:43;0.57;;;0.47;;
13696;SDS011;6920;50.080;8.226;2024-01-27T00:18:11;0.30;;;0.30;;
13696;SDS011;6920;50.080;8.226;2024-01-27T00:20:38;0.80;;;0.17;;
13696;SDS011;6920;50.080;8.226;2024-01-27T00:23:05;0.00;;;0.00;;
13696;SDS011;6920;50.080;8.226;2024-01-27T00:25:33;0.98;;;0.98;;
13696;SDS011;6920;50.080;8.226;2024-01-27T00:28:00;0.43;;;0.43;;
13696;SDS011;6920;50.080;8.226;2024-01-27T00:30:27;0.10;;;0.10;;
13696;SDS011;6920;50.080;8.226;2024-01-27T00:32:56;0.52;;;0.52;;
13696;SDS011;6920;50.080;8.226;2024-01-27T00:35:23;0.00;;;0.00;;
13696;SDS011;6920;50.080;8.226;2024-01-27T00:37:50;5.35;;;1.48;;
13696;SDS011;6920;50.080;8.226;2024-01-27T00:40:19;0.75;;;0.75;;
13696;SDS011;6920;50.080;8.226;2024-01-27T00:42:46;0.13;;;0.13;;
13696;SDS011;6920;50.080;8.226;2024-01-27T00:45:16;9.38;;;4.68;;
13696;SDS011;6920;50.080;8.226;2024-01-27T00:47:43;4.85;;;3.20;;
13696;SDS011;6920;50.080;8.226;2024-01-27T00:50:12;0.43;;;0.43;;
13696;SDS011;6920;50.080;8.226;2024-01-27T00:52:40;1.13;;;0.77;;
13696;SDS011;6920;50.080;8.226;2024-01-27T00:55:07;0.10;;;0.10;;
13696;SDS011;6920;50.080;8.226;2024-01-27T00:57:35;0.85;;;0.40;;
13696;SDS011;6920;50.080;8.226;2024-01-27T01:00:03;0.30;;;0.20;;
13696;SDS011;6920;50.080;8.226;2024-01-27T01:02:31;1.25;;;1.13;;
13696;SDS011;6920;50.080;8.226;2024-01-27T01:04:59;1.00;;;0.82;;
13696;SDS011;6920;50.080;8.226;2024-01-27T01:07:27;0.35;;;0.35;;
13696;SDS011;6920;50.080;8.226;2024-01-27T01:09:54;5.10;;;2.40;;
13696;SDS011;6920;50.080;8.226;2024-01-27T01:12:22;1.20;;;1.20;;
13696;SDS011;6920;50.080;8.226;2024-01-27T01:14:50;0.20;;;0.20;;
13696;SDS011;6920;50.080;8.226;2024-01-27T01:17:18;0.82;;;0.22;;
13696;SDS011;6920;50.080;8.226;2024-01-27T01:19:45;0.70;;;0.50;;
13696;SDS011;6920;50.080;8.226;2024-01-27T01:22:13;2.20;;;0.57;;
13696;SDS011;6920;50.080;8.226;2024-01-27T01:24:42;1.40;;;1.35;;
13696;SDS011;6920;50.080;8.226;2024-01-27T01:27:09;0.57;;;0.57;;
13696;SDS011;6920;50.080;8.226;2024-01-27T01:29:37;1.05;;;0.73;;
13696;SDS011;6920;50.080;8.226;2024-01-27T01:32:04;0.47;;;0.20;;
13696;SDS011;6920;50.080;8.226;2024-01-27T01:34:32;0.08;;;0.08;;
13696;SDS011;6920;50.080;8.226;2024-01-27T01:37:00;2.08;;;1.35;;
13696;SDS011;6920;50.080;8.226;2024-01-27T01:39:28;0.38;;;0.38;;
13696;SDS011;6920;50.080;8.226;2024-01-27T01:41:59;0.45;;;0.45;;
13696;SDS011;6920;50.080;8.226;2024-01-27T01:44:28;0.00;;;0.00;;
13696;SDS011;6920;50.080;8.226;2024-01-27T01:46:56;0.00;;;0.00;;
13696;SDS011;6920;50.080;8.226;2024-01-27T01:49:24;0.00;;;0.00;;
13696;SDS011;6920;50.080;8.226;2024-01-27T01:51:52;0.57;;;0.57;;
13696;SDS011;6920;50.080;8.226;2024-01-27T01:54:20;0.10;;;0.10;;
13696;SDS011;6920;50.080;8.226;2024-01-27T01:56:52;0.00;;;0.00;;
13696;SDS011;6920;50.080;8.226;2024-01-27T01:59:21;0.03;;;0.03;;
13696;SDS011;6920;50.080;8.226;2024-01-27T02:01:49;2.50;;;0.55;;
13696;SDS011;6920;50.080;8.226;2024-01-27T02:04:17;0.00;;;0.00;;
13696;SDS011;6920;50.080;8.226;2024-01-27T02:06:45;0.10;;;0.10;;
13696;SDS011;6920;50.080;8.226;2024-01-27T02:09:12;1.45;;;0.05;;
13696;SDS011;6920;50.080;8.226;2024-01-27T02:11:40;0.47;;;0.22;;
13696;SDS011;6920;50.080;8.226;2024-01-27T02:14:08;0.10;;;0.10;;
13696;SDS011;6920;50.080;8.226;2024-01-27T02:16:37;0.00;;;0.00;;
13696;SDS011;6920;50.080;8.226;2024-01-27T02:19:04;0.00;;;0.00;;
13696;SDS011;6920;50.080;8.226;2024-01-27T02:21:31;0.00;;;0.00;;
13696;SDS011;6920;50.080;8.226;2024-01-27T02:23:59;0.40;;;0.40;;
13696;SDS011;6920;50.080;8.226;2024-01-27T02:26:28;0.30;;;0.30;;
13696;SDS011;6920;50.080;8.226;2024-01-27T02:28:55;0.25;;;0.25;;
13696;SDS011;6920;50.080;8.226;2024-01-27T02:31:22;0.30;;;0.30;;
13696;SDS011;6920;50.080;8.226;2024-01-27T02:33:49;8.43;;;1.67;;
13696;SDS011;6920;50.080;8.226;2024-01-27T02:36:16;0.35;;;0.32;;
13696;SDS011;6920;50.080;8.226;2024-01-27T02:38:44;0.30;;;0.30;;
13696;SDS011;6920;50.080;8.226;2024-01-27T02:41:11;14.45;;;9.93;;
13696;SDS011;6920;50.080;8.226;2024-01-27T02:43:41;26.35;;;17.25;;
13696;SDS011;6920;50.080;8.226;2024-01-27T02:46:09;23.95;;;8.43;;
13696;SDS011;6920;50.080;8.226;2024-01-27T02:48:39;2.75;;;2.55;;
13696;SDS011;6920;50.080;8.226;2024-01-27T02:51:07;1.88;;;1.23;;
13696;SDS011;6920;50.080;8.226;2024-01-27T02:53:34;0.52;;;0.52;;
13696;SDS011;6920;50.080;8.226;2024-01-27T02:56:01;1.17;;;1.08;;
13696;SDS011;6920;50.080;8.226;2024-01-27T02:58:29;0.77;;;0.65;;
13696;SDS011;6920;50.080;8.226;2024-01-27T03:00:58;0.00;;;0.00;;
13696;SDS011;6920;50.080;8.226;2024-01-27T03:03:25;0.00;;;0.00;;
13696;SDS011;6920;50.080;8.226;2024-01-27T03:05:54;1.13;;;0.20;;
13696;SDS011;6920;50.080;8.226;2024-01-27T03:08:21;0.00;;;0.00;;
13696;SDS011;6920;50.080;8.226;2024-01-27T03:10:48;0.00;;;0.00;;
13696;SDS011;6920;50.080;8.226;2024-01-27T03:13:16;0.00;;;0.00;;
13696;SDS011;6920;50.080;8.226;2024-01-27T03:15:44;0.32;;;0.32;;
13696;SDS011;6920;50.080;8.226;2024-01-27T03:18:14;0.00;;;0.00;;
13696;SDS011;6920;50.080;8.226;2024-01-27T03:20:42;0.00;;;0.00;;
13696;SDS011;6920;50.080;8.226;2024-01-27T03:23:10;0.00;;;0.00;;
13696;SDS011;6920;50.080;8.226;2024-01-27T03:25:37;0.00;;;0.00;;
13696;SDS011;6920;50.080;8.226;2024-01-27T03:28:05;0.00;;;0.00;;
13696;SDS011;6920;50.080;8.226;2024-01-27T03:30:33;0.00;;;0.00;;
13696;SDS011;6920;50.080;8.226;2024-01-27T03:33:01;0.10;;;0.10;;
13696;SDS011;6920;50.080;8.226;2024-01-27T03:35:30;0.00;;;0.00;;
13696;SDS011;6920;50.080;8.226;2024-01-27T03:37:58;0.55;;;0.55;;
13696;SDS011;6920;50.080;8.226;2024-01-27T03:40:26;0.22;;;0.22;;
13696;SDS011;6920;50.080;8.226;2024-01-27T03:42:54;5.25;;;1.25;;
13696;SDS011;6920;50.080;8.226;2024-01-27T03:45:22;5.95;;;5.43;;
13696;SDS011;6920;50.080;8.226;2024-01-27T03:47:50;5.22;;;4.43;;
13696;SDS011;6920;50.080;8.226;2024-01-27T03:50:17;9.55;;;7.53;;
13696;SDS011;6920;50.080;8.226;2024-01-27T03:52:46;16.02;;;8.88;;
13696;SDS011;6920;50.080;8.226;2024-01-27T03:55:13;11.02;;;5.97;;
13696;SDS011;6920;50.080;8.226;2024-01-27T03:57:40;2.92;;;1.73;;
13696;SDS011;6920;50.080;8.226;2024-01-27T04:00:09;0.68;;;0.68;;
13696;SDS011;6920;50.080;8.226;2024-01-27T04:02:37;1.38;;;1.30;;
13696;SDS011;6920;50.080;8.226;2024-01-27T04:05:06;0.00;;;0.00;;
13696;SDS011;6920;50.080;8.226;2024-01-27T04:07:34;0.00;;;0.00;;
13696;SDS011;6920;50.080;8.226;2024-01-27T04:10:03;0.00;;;0.00;;
13696;SDS011;6920;50.080;8.226;2024-01-27T04:12:31;0.00;;;0.00;;
13696;SDS011;6920;50.080;8.226;2024-01-27T04:14:59;0.45;;;0.45;;
13696;SDS011;6920;50.080;8.226;2024-01-27T04:17:27;0.00;;;0.00;;
13696;SDS011;6920;50.080;8.226;2024-01-27T04:19:54;0.03;;;0.03;;
13696;SDS011;6920;50.080;8.226;2024-01-27T04:22:21;0.70;;;0.70;;
13696;SDS011;6920;50.080;8.226;2024-01-27T04:24:48;1.02;;;0.80;;
13696;SDS011;6920;50.080;8.226;2024-01-27T04:27:17;0.00;;;0.00;;
13696;SDS011;6920;50.080;8.226;2024-01-27T04:29:44;1.10;;;0.50;;
13696;SDS011;6920;50.080;8.226;2024-01-27T04:32:11;0.00;;;0.00;;
13696;SDS011;6920;50.080;8.226;2024-01-27T04:34:39;0.00;;;0.00;;
13696;SDS011;6920;50.080;8.226;2024-01-27T04:37:06;0.00;;;0.00;;
13696;SDS011;6920;50.080;8.226;2024-01-27T04:39:35;0.00;;;0.00;;
13696;SDS011;6920;50.080;8.226;2024-01-27T04:42:02;0.00;;;0.00;;
13696;SDS011;6920;50.080;8.226;2024-01-27T04:44:32;0.00;;;0.00;;
13696;SDS011;6920;50.080;8.226;2024-01-27T04:47:00;0.10;;;0.10;;
13696;SDS011;6920;50.080;8.226;2024-01-27T04:49:27;0.00;;;0.00;;
13696;SDS011;6920;50.080;8.226;2024-01-27T04:51:54;0.00;;;0.00;;
13696;SDS011;6920;50.080;8.226;2024-01-27T04:54:22;0.00;;;0.00;;
13696;SDS011;6920;50.080;8.226;2024-01-27T04:56:50;0.00;;;0.00;;
13696;SDS011;6920;50.080;8.226;2024-01-27T04:59:17;0.00;;;0.00;;
13696;SDS011;6920;50.080;8.226;2024-01-27T05:01:46;0.00;;;0.00;;
13696;SDS011;6920;50.080;8.226;2024-01-27T05:04:13;0.00;;;0.00;;
13696;SDS011;6920;50.080;8.226;2024-01-27T05:06:43;0.55;;;0.50;;
13696;SDS011;6920;50.080;8.226;2024-01-27T05:09:10;1.98;;;1.92;;
13696;SDS011;6920;50.080;8.226;2024-01-27T05:11:37;5.85;;;5.43;;
13696;SDS011;6920;50.080;8.226;2024-01-27T05:14:04;7.32;;;3.38;;
13696;SDS011;6920;50.080;8.226;2024-01-27T05:16:34;2.45;;;1.55;;
13696;SDS011;6920;50.080;8.226;2024-01-27T05:19:03;1.27;;;1.17;;
13696;SDS011;6920;50.080;8.226;2024-01-27T05:21:31;0.15;;;0.15;;
13696;SDS011;6920;50.080;8.226;2024-01-27T05:23:58;0.60;;;0.60;;
13696;SDS011;6920;50.080;8.226;2024-01-27T05:26:26;0.15;;;0.15;;
13696;SDS011;6920;50.080;8.226;2024-01-27T05:28:53;0.10;;;0.10;;
13696;SDS011;6920;50.080;8.226;2024-01-27T05:31:20;0.00;;;0.00;;
13696;SDS011;6920;50.080;8.226;2024-01-27T05:33:48;0.00;;;0.00;;
13696;SDS011;6920;50.080;8.226;2024-01-27T05:36:17;0.00;;;0.00;;
13696;SDS011;6920;50.080;8.226;2024-01-27T05:38:45;0.20;;;0.20;;
13696;SDS011;6920;50.080;8.226;2024-01-27T05:41:12;0.00;;;0.00;;
13696;SDS011;6920;50.080;8.226;2024-01-27T05:43:41;0.00;;;0.00;;
13696;SDS011;6920;50.080;8.226;2024-01-27T05:46:09;0.38;;;0.38;;
13696;SDS011;6920;50.080;8.226;2024-01-27T05:48:38;0.00;;;0.00;;
13696;SDS011;6920;50.080;8.226;2024-01-27T05:51:05;0.13;;;0.13;;
13696;SDS011;6920;50.080;8.226;2024-01-27T05:53:35;0.70;;;0.70;;
13696;SDS011;6920;50.080;8.226;2024-01-27T05:56:03;0.25;;;0.25;;
13696;SDS011;6920;50.080;8.226;2024-01-27T05:58:31;1.23;;;1.00;;
13696;SDS011;6920;50.080;8.226;2024-01-27T06:00:58;0.03;;;0.03;;
13696;SDS011;6920;50.080;8.226;2024-01-27T06:03:26;0.15;;;0.15;;
13696;SDS011;6920;50.080;8.226;2024-01-27T06:05:53;0.00;;;0.00;;
13696;SDS011;6920;50.080;8.226;2024-01-27T06:08:21;0.00;;;0.00;;
13696;SDS011;6920;50.080;8.226;2024-01-27T06:10:50;0.15;;;0.15;;
13696;SDS011;6920;50.080;8.226;2024-01-27T06:13:18;0.00;;;0.00;;
13696;SDS011;6920;50.080;8.226;2024-01-27T06:15:46;0.00;;;0.00;;
13696;SDS011;6920;50.080;8.226;2024-01-27T06:18:13;0.00;;;0.00;;
13696;SDS011;6920;50.080;8.226;2024-01-27T06:20:41;0.00;;;0.00;;
13696;SDS011;6920;50.080;8.226;2024-01-27T06:23:09;3.10;;;0.90;;
13696;SDS011;6920;50.080;8.226;2024-01-27T06:25:37;0.10;;;0.10;;
13696;SDS011;6920;50.080;8.226;2024-01-27T06:28:07;0.75;;;0.70;;
13696;SDS011;6920;50.080;8.226;2024-01-27T06:30:35;3.30;;;0.85;;
13696;SDS011;6920;50.080;8.226;2024-01-27T06:33:02;0.25;;;0.10;;
13696;SDS011;6920;50.080;8.226;2024-01-27T06:35:30;0.00;;;0.00;;
13696;SDS011;6920;50.080;8.226;2024-01-27T06:37:59;0.00;;;0.00;;
13696;SDS011;6920;50.080;8.226;2024-01-27T06:40:27;0.00;;;0.00;;
13696;SDS011;6920;50.080;8.226;2024-01-27T06:42:55;0.13;;;0.13;;
13696;SDS011;6920;50.080;8.226;2024-01-27T06:45:24;0.10;;;0.10;;
13696;SDS011;6920;50.080;8.226;2024-01-27T06:47:52;0.00;;;0.00;;
13696;SDS011;6920;50.080;8.226;2024-01-27T06:50:22;0.17;;;0.17;;
13696;SDS011;6920;50.080;8.226;2024-01-27T06:53:04;0.00;;;0.00;;
13696;SDS011;6920;50.080;8.226;2024-01-27T06:55:37;0.17;;;0.10;;
13696;SDS011;6920;50.080;8.226;2024-01-27T06:58:04;0.00;;;0.00;;
13696;SDS011;6920;50.080;8.226;2024-01-27T07:00:34;0.00;;;0.00;;
13696;SDS011;6920;50.080;8.226;2024-01-27T07:03:03;0.00;;;0.00;;
13696;SDS011;6920;50.080;8.226;2024-01-27T07:05:31;0.00;;;0.00;;
13696;SDS011;6920;50.080;8.226;2024-01-27T07:08:04;0.10;;;0.10;;
13696;SDS011;6920;50.080;8.226;2024-01-27T07:10:31;0.00;;;0.00;;
13696;SDS011;6920;50.080;8.226;2024-01-27T07:12:59;0.00;;;0.00;;
13696;SDS011;6920;50.080;8.226;2024-01-27T07:15:27;0.00;;;0.00;;
13696;SDS011;6920;50.080;8.226;2024-01-27T07:17:56;0.00;;;0.00;;
13696;SDS011;6920;50.080;8.226;2024-01-27T07:20:23;0.90;;;0.90;;
13696;SDS011;6920;50.080;8.226;2024-01-27T07:22:51;0.00;;;0.00;;
13696;SDS011;6920;50.080;8.226;2024-01-27T07:25:19;0.00;;;0.00;;
13696;SDS011;6920;50.080;8.226;2024-01-27T07:27:47;0.20;;;0.20;;
13696;SDS011;6920;50.080;8.226;2024-01-27T07:30:14;0.13;;;0.13;;
13696;SDS011;6920;50.080;8.226;2024-01-27T07:32:42;0.28;;;0.28;;
13696;SDS011;6920;50.080;8.226;2024-01-27T07:35:11;0.00;;;0.00;;
13696;SDS011;6920;50.080;8.226;2024-01-27T07:37:39;0.00;;;0.00;;
13696;SDS011;6920;50.080;8.226;2024-01-27T07:40:07;0.10;;;0.10;;
13696;SDS011;6920;50.080;8.226;2024-01-27T07:42:34;0.20;;;0.20;;
13696;SDS011;6920;50.080;8.226;2024-01-27T07:45:02;0.38;;;0.38;;
13696;SDS011;6920;50.080;8.226;2024-01-27T07:47:30;0.00;;;0.00;;
13696;SDS011;6920;50.080;8.226;2024-01-27T07:50:00;0.00;;;0.00;;
13696;SDS011;6920;50.080;8.226;2024-01-27T07:52:29;0.00;;;0.00;;
13696;SDS011;6920;50.080;8.226;2024-01-27T07:54:56;0.25;;;0.25;;
13696;SDS011;6920;50.080;8.226;2024-01-27T07:57:28;0.00;;;0.00;;
13696;SDS011;6920;50.080;8.226;2024-01-27T07:59:56;0.98;;;0.85;;
13696;SDS011;6920;50.080;8.226;2024-01-27T08:02:25;0.10;;;0.10;;
13696;SDS011;6920;50.080;8.226;2024-01-27T08:04:53;0.00;;;0.00;;
13696;SDS011;6920;50.080;8.226;2024-01-27T08:07:20;0.00;;;0.00;;
13696;SDS011;6920;50.080;8.226;2024-01-27T08:09:49;5.40;;;0.70;;
13696;SDS011;6920;50.080;8.226;2024-01-27T08:12:18;0.08;;;0.08;;
13696;SDS011;6920;50.080;8.226;2024-01-27T08:14:46;0.20;;;0.20;;
13696;SDS011;6920;50.080;8.226;2024-01-27T08:17:13;0.00;;;0.00;;
13696;SDS011;6920;50.080;8.226;2024-01-27T08:19:41;0.00;;;0.00;;
13696;SDS011;6920;50.080;8.226;2024-01-27T08:22:10;0.20;;;0.15;;
13696;SDS011;6920;50.080;8.226;2024-01-27T08:24:39;1.88;;;1.80;;
13696;SDS011;6920;50.080;8.226;2024-01-27T08:27:09;1.38;;;0.88;;
13696;SDS011;6920;50.080;8.226;2024-01-27T08:29:39;0.40;;;0.20;;
13696;SDS011;6920;50.080;8.226;2024-01-27T08:32:06;0.00;;;0.00;;
13696;SDS011;6920;50.080;8.226;2024-01-27T08:34:35;0.30;;;0.30;;
13696;SDS011;6920;50.080;8.226;2024-01-27T08:37:13;1.77;;;1.65;;
13696;SDS011;6920;50.080;8.226;2024-01-27T08:39:41;0.00;;;0.00;;
13696;SDS011;6920;50.080;8.226;2024-01-27T08:42:13;0.25;;;0.20;;
13696;SDS011;6920;50.080;8.226;2024-01-27T08:44:41;0.32;;;0.15;;
13696;SDS011;6920;50.080;8.226;2024-01-27T08:47:08;0.00;;;0.00;;
13696;SDS011;6920;50.080;8.226;2024-01-27T08:49:36;0.10;;;0.10;;
13696;SDS011;6920;50.080;8.226;2024-01-27T08:52:05;0.47;;;0.47;;
13696;SDS011;6920;50.080;8.226;2024-01-27T08:54:33;0.50;;;0.50;;
13696;SDS011;6920;50.080;8.226;2024-01-27T08:57:01;0.00;;;0.00;;
13696;SDS011;6920;50.080;8.226;2024-01-27T08:59:32;0.00;;;0.00;;
13696;SDS011;6920;50.080;8.226;2024-01-27T09:02:01;0.10;;;0.10;;
13696;SDS011;6920;50.080;8.226;2024-01-27T09:04:28;0.00;;;0.00;;
13696;SDS011;6920;50.080;8.226;2024-01-27T09:06:58;0.20;;;0.20;;
13696;SDS011;6920;50.080;8.226;2024-01-27T09:09:25;0.17;;;0.17;;
13696;SDS011;6920;50.080;8.226;2024-01-27T09:11:57;0.22;;;0.22;;
13696;SDS011;6920;50.080;8.226;2024-01-27T09:14:28;0.32;;;0.32;;
13696;SDS011;6920;50.080;8.226;2024-01-27T09:17:01;0.70;;;0.47;;
13696;SDS011;6920;50.080;8.226;2024-01-27T09:19:30;0.25;;;0.25;;
13696;SDS011;6920;50.080;8.226;2024-01-27T09:21:58;0.30;;;0.30;;
13696;SDS011;6920;50.080;8.226;2024-01-27T09:24:25;0.20;;;0.20;;
13696;SDS011;6920;50.080;8.226;2024-01-27T09:26:55;1.08;;;0.57;;
13696;SDS011;6920;50.080;8.226;2024-01-27T09:29:26;0.00;;;0.00;;
13696;SDS011;6920;50.080;8.226;2024-01-27T09:31:54;0.00;;;0.00;;
13696;SDS011;6920;50.080;8.226;2024-01-27T09:34:24;0.43;;;0.43;;
13696;SDS011;6920;50.080;8.226;2024-01-27T09:36:52;5.57;;;1.80;;
13696;SDS011;6920;50.080;8.226;2024-01-27T09:39:20;0.00;;;0.00;;
13696;SDS011;6920;50.080;8.226;2024-01-27T09:41:48;0.00;;;0.00;;
13696;SDS011;6920;50.080;8.226;2024-01-27T09:44:16;0.70;;;0.70;;
13696;SDS011;6920;50.080;8.226;2024-01-27T09:46:46;0.10;;;0.10;;
13696;SDS011;6920;50.080;8.226;2024-01-27T09:49:14;0.77;;;0.77;;
13696;SDS011;6920;50.080;8.226;2024-01-27T09:51:43;0.63;;;0.55;;
13696;SDS011;6920;50.080;8.226;2024-01-27T09:54:12;0.00;;;0.00;;
13696;SDS011;6920;50.080;8.226;2024-01-27T09:56:42;0.10;;;0.10;;
13696;SDS011;6920;50.080;8.226;2024-01-27T09:59:14;0.00;;;0.00;;
13696;SDS011;6920;50.080;8.226;2024-01-27T10:01:44;0.45;;;0.30;;
13696;SDS011;6920;50.080;8.226;2024-01-27T10:04:12;0.03;;;0.03;;
13696;SDS011;6920;50.080;8.226;2024-01-27T10:06:40;0.00;;;0.00;;
13696;SDS011;6920;50.080;8.226;2024-01-27T10:09:09;0.00;;;0.00;;
13696;SDS011;6920;50.080;8.226;2024-01-27T10:11:37;0.00;;;0.00;;
13696;SDS011;6920;50.080;8.226;2024-01-27T10:14:08;0.00;;;0.00;;
13696;SDS011;6920;50.080;8.226;2024-01-27T10:16:40;0.30;;;0.10;;
13696;SDS011;6920;50.080;8.226;2024-01-27T10:19:08;0.00;;;0.00;;
13696;SDS011;6920;50.080;8.226;2024-01-27T10:21:44;0.15;;;0.15;;
13696;SDS011;6920;50.080;8.226;2024-01-27T10:24:14;0.65;;;0.10;;
13696;SDS011;6920;50.080;8.226;2024-01-27T10:26:42;0.00;;;0.00;;
13696;SDS011;6920;50.080;8.226;2024-01-27T10:29:10;0.00;;;0.00;;
13696;SDS011;6920;50.080;8.226;2024-01-27T10:31:38;0.00;;;0.00;;
13696;SDS011;6920;50.080;8.226;2024-01-27T10:34:07;0.00;;;0.00;;
13696;SDS011;6920;50.080;8.226;2024-01-27T10:36:40;0.38;;;0.38;;
13696;SDS011;6920;50.080;8.226;2024-01-27T10:39:16;0.00;;;0.00;;
13696;SDS011;6920;50.080;8.226;2024-01-27T10:41:44;0.17;;;0.17;;
13696;SDS011;6920;50.080;8.226;2024-01-27T10:44:13;0.28;;;0.28;;
13696;SDS011;6920;50.080;8.226;2024-01-27T10:46:42;0.13;;;0.13;;
13696;SDS011;6920;50.080;8.226;2024-01-27T10:49:13;0.20;;;0.20;;
13696;SDS011;6920;50.080;8.226;2024-01-27T10:51:43;0.00;;;0.00;;
13696;SDS011;6920;50.080;8.226;2024-01-27T10:54:14;0.45;;;0.45;;
13696;SDS011;6920;50.080;8.226;2024-01-27T10:56:44;0.00;;;0.00;;
13696;SDS011;6920;50.080;8.226;2024-01-27T10:59:13;0.00;;;0.00;;
13696;SDS011;6920;50.080;8.226;2024-01-27T11:01:46;0.13;;;0.13;;
13696;SDS011;6920;50.080;8.226;2024-01-27T11:04:17;0.00;;;0.00;;
13696;SDS011;6920;50.080;8.226;2024-01-27T11:06:45;0.60;;;0.52;;
13696;SDS011;6920;50.080;8.226;2024-01-27T11:09:15;0.03;;;0.03;;
13696;SDS011;6920;50.080;8.226;2024-01-27T11:11:50;0.10;;;0.10;;
13696;SDS011;6920;50.080;8.226;2024-01-27T11:14:19;0.22;;;0.20;;
13696;SDS011;6920;50.080;8.226;2024-01-27T11:16:46;0.00;;;0.00;;
13696;SDS011;6920;50.080;8.226;2024-01-27T11:19:16;0.10;;;0.10;;
13696;SDS011;6920;50.080;8.226;2024-01-27T11:21:45;0.00;;;0.00;;
13696;SDS011;6920;50.080;8.226;2024-01-27T11:24:14;0.17;;;0.17;;
13696;SDS011;6920;50.080;8.226;2024-01-27T11:26:42;2.28;;;0.43;;
13696;SDS011;6920;50.080;8.226;2024-01-27T11:29:11;0.20;;;0.20;;
13696;SDS011;6920;50.080;8.226;2024-01-27T11:31:44;0.80;;;0.38;;
13696;SDS011;6920;50.080;8.226;2024-01-27T11:34:12;0.10;;;0.10;;
13696;SDS011;6920;50.080;8.226;2024-01-27T11:36:42;0.55;;;0.45;;
13696;SDS011;6920;50.080;8.226;2024-01-27T11:39:22;0.65;;;0.20;;
13696;SDS011;6920;50.080;8.226;2024-01-27T11:41:51;1.00;;;0.98;;
13696;SDS011;6920;50.080;8.226;2024-01-27T11:44:21;0.90;;;0.88;;
13696;SDS011;6920;50.080;8.226;2024-01-27T11:46:49;0.10;;;0.10;;
13696;SDS011;6920;50.080;8.226;2024-01-27T11:49:17;0.15;;;0.15;;
13696;SDS011;6920;50.080;8.226;2024-01-27T11:51:46;0.00;;;0.00;;
13696;SDS011;6920;50.080;8.226;2024-01-27T11:54:13;0.10;;;0.10;;
13696;SDS011;6920;50.080;8.226;2024-01-27T11:56:41;0.10;;;0.10;;
13696;SDS011;6920;50.080;8.226;2024-01-27T11:59:09;0.00;;;0.00;;
13696;SDS011;6920;50.080;8.226;2024-01-27T12:01:39;0.22;;;0.22;;
13696;SDS011;6920;50.080;8.226;2024-01-27T12:04:07;0.00;;;0.00;;
13696;SDS011;6920;50.080;8.226;2024-01-27T12:06:35;0.00;;;0.00;;
13696;SDS011;6920;50.080;8.226;2024-01-27T12:09:05;0.00;;;0.00;;
13696;SDS011;6920;50.080;8.226;2024-01-27T12:11:37;0.10;;;0.10;;
13696;SDS011;6920;50.080;8.226;2024-01-27T12:14:06;0.10;;;0.10;;
13696;SDS011;6920;50.080;8.226;2024-01-27T12:16:34;0.08;;;0.08;;
13696;SDS011;6920;50.080;8.226;2024-01-27T12:19:03;0.00;;;0.00;;
13696;SDS011;6920;50.080;8.226;2024-01-27T12:21:34;0.60;;;0.60;;
13696;SDS011;6920;50.080;8.226;2024-01-27T12:24:05;0.10;;;0.10;;
13696;SDS011;6920;50.080;8.226;2024-01-27T12:26:33;0.00;;;0.00;;
13696;SDS011;6920;50.080;8.226;2024-01-27T12:29:04;0.10;;;0.10;;
13696;SDS011;6920;50.080;8.226;2024-01-27T12:31:33;0.00;;;0.00;;
13696;SDS011;6920;50.080;8.226;2024-01-27T12:34:05;0.00;;;0.00;;
13696;SDS011;6920;50.080;8.226;2024-01-27T12:36:33;0.20;;;0.20;;
13696;SDS011;6920;50.080;8.226;2024-01-27T12:39:04;0.05;;;0.05;;
13696;SDS011;6920;50.080;8.226;2024-01-27T12:41:32;0.00;;;0.00;;
13696;SDS011;6920;50.080;8.226;2024-01-27T12:44:00;0.63;;;0.28;;
13696;SDS011;6920;50.080;8.226;2024-01-27T12:46:28;0.20;;;0.20;;
13696;SDS011;6920;50.080;8.226;2024-01-27T12:48:56;0.30;;;0.22;;
13696;SDS011;6920;50.080;8.226;2024-01-27T12:51:26;0.38;;;0.38;;
13696;SDS011;6920;50.080;8.226;2024-01-27T12:53:55;0.98;;;0.98;;
13696;SDS011;6920;50.080;8.226;2024-01-27T12:56:23;0.17;;;0.17;;
13696;SDS011;6920;50.080;8.226;2024-01-27T12:58:52;0.00;;;0.00;;
13696;SDS011;6920;50.080;8.226;2024-01-27T13:01:20;0.45;;;0.45;;
13696;SDS011;6920;50.080;8.226;2024-01-27T13:03:48;1.67;;;0.55;;
13696;SDS011;6920;50.080;8.226;2024-01-27T13:06:15;0.28;;;0.28;;
13696;SDS011;6920;50.080;8.226;2024-01-27T13:08:46;0.45;;;0.45;;
13696;SDS011;6920;50.080;8.226;2024-01-27T13:11:14;0.25;;;0.25;;
13696;SDS011;6920;50.080;8.226;2024-01-27T13:13:42;0.00;;;0.00;;
13696;SDS011;6920;50.080;8.226;2024-01-27T13:16:09;0.00;;;0.00;;
13696;SDS011;6920;50.080;8.226;2024-01-27T13:18:38;0.98;;;0.57;;
13696;SDS011;6920;50.080;8.226;2024-01-27T13:21:06;0.00;;;0.00;;
13696;SDS011;6920;50.080;8.226;2024-01-27T13:23:39;0.00;;;0.00;;
13696;SDS011;6920;50.080;8.226;2024-01-27T13:26:09;3.70;;;0.28;;
13696;SDS011;6920;50.080;8.226;2024-01-27T13:28:38;0.00;;;0.00;;
13696;SDS011;6920;50.080;8.226;2024-01-27T13:31:09;0.70;;;0.28;;
13696;SDS011;6920;50.080;8.226;2024-01-27T13:33:36;0.00;;;0.00;;
13696;SDS011;6920;50.080;8.226;2024-01-27T13:36:05;0.30;;;0.28;;
13696;SDS011;6920;50.080;8.226;2024-01-27T13:38:32;0.00;;;0.00;;
13696;SDS011;6920;50.080;8.226;2024-01-27T13:41:00;0.00;;;0.00;;
13696;SDS011;6920;50.080;8.226;2024-01-27T13:43:31;0.00;;;0.00;;
13696;SDS011;6920;50.080;8.226;2024-01-27T13:45:59;4.95;;;0.22;;
13696;SDS011;6920;50.080;8.226;2024-01-27T13:48:29;0.00;;;0.00;;
13696;SDS011;6920;50.080;8.226;2024-01-27T13:50:57;0.13;;;0.13;;
13696;SDS011;6920;50.080;8.226;2024-01-27T13:53:24;0.05;;;0.05;;
13696;SDS011;6920;50.080;8.226;2024-01-27T13:55:52;0.00;;;0.00;;
13696;SDS011;6920;50.080;8.226;2024-01-27T13:58:21;0.32;;;0.25;;
13696;SDS011;6920;50.080;8.226;2024-01-27T14:00:52;0.10;;;0.10;;
13696;SDS011;6920;50.080;8.226;2024-01-27T14:03:22;1.55;;;0.52;;
13696;SDS011;6920;50.080;8.226;2024-01-27T14:05:50;0.00;;;0.00;;
13696;SDS011;6920;50.080;8.226;2024-01-27T14:08:23;6.93;;;0.28;;
13696;SDS011;6920;50.080;8.226;2024-01-27T14:10:51;0.00;;;0.00;;
13696;SDS011;6920;50.080;8.226;2024-01-27T14:13:18;0.00;;;0.00;;
13696;SDS011;6920;50.080;8.226;2024-01-27T14:15:46;3.53;;;0.25;;
13696;SDS011;6920;50.080;8.226;2024-01-27T14:18:18;0.15;;;0.15;;
13696;SDS011;6920;50.080;8.226;2024-01-27T14:20:46;0.00;;;0.00;;
13696;SDS011;6920;50.080;8.226;2024-01-27T14:23:15;0.00;;;0.00;;
13696;SDS011;6920;50.080;8.226;2024-01-27T14:25:43;0.13;;;0.13;;
13696;SDS011;6920;50.080;8.226;2024-01-27T14:28:11;0.00;;;0.00;;
13696;SDS011;6920;50.080;8.226;2024-01-27T14:30:39;0.98;;;0.90;;
13696;SDS011;6920;50.080;8.226;2024-01-27T14:33:06;0.30;;;0.30;;
13696;SDS011;6920;50.080;8.226;2024-01-27T14:35:35;0.00;;;0.00;;
13696;SDS011;6920;50.080;8.226;2024-01-27T14:38:04;0.00;;;0.00;;
13696;SDS011;6920;50.080;8.226;2024-01-27T14:40:34;0.45;;;0.43;;
13696;SDS011;6920;50.080;8.226;2024-01-27T14:43:05;0.00;;;0.00;;
13696;SDS011;6920;50.080;8.226;2024-01-27T14:45:36;0.00;;;0.00;;
13696;SDS011;6920;50.080;8.226;2024-01-27T14:48:04;0.00;;;0.00;;
13696;SDS011;6920;50.080;8.226;2024-01-27T14:50:32;0.00;;;0.00;;
13696;SDS011;6920;50.080;8.226;2024-01-27T14:53:01;0.13;;;0.13;;
13696;SDS011;6920;50.080;8.226;2024-01-27T14:55:30;0.00;;;0.00;;
13696;SDS011;6920;50.080;8.226;2024-01-27T14:57:58;0.10;;;0.10;;
13696;SDS011;6920;50.080;8.226;2024-01-27T15:00:28;0.10;;;0.10;;
13696;SDS011;6920;50.080;8.226;2024-01-27T15:02:56;3.10;;;0.75;;
13696;SDS011;6920;50.080;8.226;2024-01-27T15:05:25;0.00;;;0.00;;
13696;SDS011;6920;50.080;8.226;2024-01-27T15:07:53;0.32;;;0.32;;